sensor_id;sensor_type;location;lat;lon;timestamp;temperature;humidity
16881;DHT22;8557;52.068;5.198;2022-07-25T00:00:30;24.60;93.20
16881;DHT22;8557;52.068;5.198;2022-07-25T00:02:57;24.60;94.90
16881;DHT22;8557;52.068;5.198;2022-07-25T00:05:24;24.60;95.40
16881;DHT22;8557;52.068;5.198;2022-07-25T00:07:50;24.50;96.00
16881;DHT22;8557;52.068;5.198;2022-07-25T00:10:17;24.50;96.60
16881;DHT22;8557;52.068;5.198;2022-07-25T00:12:44;24.40;97.00
16881;DHT22;8557;52.068;5.198;2022-07-25T00:15:12;24.40;97.00
16881;DHT22;8557;52.068;5.198;2022-07-25T00:17:39;24.40;97.30
16881;DHT22;8557;52.068;5.198;2022-07-25T00:20:07;24.40;97.20
16881;DHT22;8557;52.068;5.198;2022-07-25T00:22:34;24.40;97.60
16881;DHT22;8557;52.068;5.198;2022-07-25T00:25:01;24.30;98.40
16881;DHT22;8557;52.068;5.198;2022-07-25T00:27:28;24.30;99.00
16881;DHT22;8557;52.068;5.198;2022-07-25T00:29:54;24.30;99.90
16881;DHT22;8557;52.068;5.198;2022-07-25T00:32:22;24.30;99.90
16881;DHT22;8557;52.068;5.198;2022-07-25T00:34:49;24.20;99.90
16881;DHT22;8557;52.068;5.198;2022-07-25T00:37:16;24.20;99.90
16881;DHT22;8557;52.068;5.198;2022-07-25T00:39:42;24.10;99.90
16881;DHT22;8557;52.068;5.198;2022-07-25T00:42:09;24.10;99.90
16881;DHT22;8557;52.068;5.198;2022-07-25T00:44:36;24.10;99.90
16881;DHT22;8557;52.068;5.198;2022-07-25T00:47:03;24.10;99.90
16881;DHT22;8557;52.068;5.198;2022-07-25T00:49:31;24.10;99.90
16881;DHT22;8557;52.068;5.198;2022-07-25T00:51:57;24.00;99.90
16881;DHT22;8557;52.068;5.198;2022-07-25T00:54:24;24.00;99.90
16881;DHT22;8557;52.068;5.198;2022-07-25T00:56:51;24.00;99.90
16881;DHT22;8557;52.068;5.198;2022-07-25T00:59:18;24.00;99.90
16881;DHT22;8557;52.068;5.198;2022-07-25T01:01:45;23.90;99.90
16881;DHT22;8557;52.068;5.198;2022-07-25T01:04:12;23.90;99.90
16881;DHT22;8557;52.068;5.198;2022-07-25T01:06:41;23.90;99.90
16881;DHT22;8557;52.068;5.198;2022-07-25T01:09:08;23.90;99.90
16881;DHT22;8557;52.068;5.198;2022-07-25T01:11:35;23.90;99.90
16881;DHT22;8557;52.068;5.198;2022-07-25T01:14:03;23.90;99.90
16881;DHT22;8557;52.068;5.198;2022-07-25T01:16:30;23.80;99.90
16881;DHT22;8557;52.068;5.198;2022-07-25T01:18:57;23.70;99.90
16881;DHT22;8557;52.068;5.198;2022-07-25T01:21:25;23.70;99.90
16881;DHT22;8557;52.068;5.198;2022-07-25T01:23:52;23.60;99.90
16881;DHT22;8557;52.068;5.198;2022-07-25T01:26:19;23.60;99.90
16881;DHT22;8557;52.068;5.198;2022-07-25T01:28:45;23.50;99.90
16881;DHT22;8557;52.068;5.198;2022-07-25T01:31:12;23.50;99.90
16881;DHT22;8557;52.068;5.198;2022-07-25T01:33:39;23.40;99.90
16881;DHT22;8557;52.068;5.198;2022-07-25T01:36:05;23.40;99.90
16881;DHT22;8557;52.068;5.198;2022-07-25T01:38:34;23.40;99.90
16881;DHT22;8557;52.068;5.198;2022-07-25T01:41:00;23.30;99.90
16881;DHT22;8557;52.068;5.198;2022-07-25T01:43:27;23.30;99.90
16881;DHT22;8557;52.068;5.198;2022-07-25T01:45:54;23.20;99.90
16881;DHT22;8557;52.068;5.198;2022-07-25T01:48:20;23.20;99.90
16881;DHT22;8557;52.068;5.198;2022-07-25T01:50:47;23.10;99.90
16881;DHT22;8557;52.068;5.198;2022-07-25T01:53:14;23.10;99.90
16881;DHT22;8557;52.068;5.198;2022-07-25T01:55:43;23.00;99.90
16881;DHT22;8557;52.068;5.198;2022-07-25T01:58:10;23.00;99.90
16881;DHT22;8557;52.068;5.198;2022-07-25T02:00:37;23.00;99.90
16881;DHT22;8557;52.068;5.198;2022-07-25T02:03:04;23.00;99.90
16881;DHT22;8557;52.068;5.198;2022-07-25T02:05:48;22.90;99.90
16881;DHT22;8557;52.068;5.198;2022-07-25T02:08:15;23.00;99.90
16881;DHT22;8557;52.068;5.198;2022-07-25T02:10:43;23.00;99.90
16881;DHT22;8557;52.068;5.198;2022-07-25T02:13:10;22.90;99.90
16881;DHT22;8557;52.068;5.198;2022-07-25T02:15:36;22.90;99.90
16881;DHT22;8557;52.068;5.198;2022-07-25T02:18:03;22.90;99.90
16881;DHT22;8557;52.068;5.198;2022-07-25T02:20:30;22.90;99.90
16881;DHT22;8557;52.068;5.198;2022-07-25T02:22:57;22.80;99.90
16881;DHT22;8557;52.068;5.198;2022-07-25T02:25:24;22.80;99.90
16881;DHT22;8557;52.068;5.198;2022-07-25T02:27:52;22.80;99.90
16881;DHT22;8557;52.068;5.198;2022-07-25T02:30:18;22.80;99.90
16881;DHT22;8557;52.068;5.198;2022-07-25T02:32:45;22.70;99.90
16881;DHT22;8557;52.068;5.198;2022-07-25T02:35:12;22.70;99.90
16881;DHT22;8557;52.068;5.198;2022-07-25T02:37:39;22.70;99.90
16881;DHT22;8557;52.068;5.198;2022-07-25T02:40:06;22.70;99.90
16881;DHT22;8557;52.068;5.198;2022-07-25T02:42:33;22.60;99.90
16881;DHT22;8557;52.068;5.198;2022-07-25T02:45:02;22.60;99.90
16881;DHT22;8557;52.068;5.198;2022-07-25T02:47:28;22.60;99.90
16881;DHT22;8557;52.068;5.198;2022-07-25T02:49:55;22.60;99.90
16881;DHT22;8557;52.068;5.198;2022-07-25T02:52:22;22.50;99.90
16881;DHT22;8557;52.068;5.198;2022-07-25T02:54:49;22.60;99.90
16881;DHT22;8557;52.068;5.198;2022-07-25T02:57:16;22.50;99.90
16881;DHT22;8557;52.068;5.198;2022-07-25T02:59:42;22.50;99.90
16881;DHT22;8557;52.068;5.198;2022-07-25T03:02:10;22.50;99.90
16881;DHT22;8557;52.068;5.198;2022-07-25T03:04:37;22.50;99.90
16881;DHT22;8557;52.068;5.198;2022-07-25T03:07:04;22.50;99.90
16881;DHT22;8557;52.068;5.198;2022-07-25T03:09:31;22.50;99.90
16881;DHT22;8557;52.068;5.198;2022-07-25T03:11:58;22.50;99.90
16881;DHT22;8557;52.068;5.198;2022-07-25T03:14:24;22.50;99.90
16881;DHT22;8557;52.068;5.198;2022-07-25T03:16:51;22.40;99.90
16881;DHT22;8557;52.068;5.198;2022-07-25T03:19:19;22.50;99.90
16881;DHT22;8557;52.068;5.198;2022-07-25T03:21:45;22.50;99.90
16881;DHT22;8557;52.068;5.198;2022-07-25T03:24:13;22.50;99.90
16881;DHT22;8557;52.068;5.198;2022-07-25T03:26:40;22.50;99.90
16881;DHT22;8557;52.068;5.198;2022-07-25T03:29:06;22.50;99.90
16881;DHT22;8557;52.068;5.198;2022-07-25T03:31:33;22.50;99.90
16881;DHT22;8557;52.068;5.198;2022-07-25T03:33:59;22.50;99.90
16881;DHT22;8557;52.068;5.198;2022-07-25T03:36:28;22.50;99.90
16881;DHT22;8557;52.068;5.198;2022-07-25T03:38:54;22.50;99.90
16881;DHT22;8557;52.068;5.198;2022-07-25T03:41:22;22.40;99.90
16881;DHT22;8557;52.068;5.198;2022-07-25T03:43:48;22.50;99.90
16881;DHT22;8557;52.068;5.198;2022-07-25T03:46:15;22.50;99.90
16881;DHT22;8557;52.068;5.198;2022-07-25T03:48:42;22.50;99.90
16881;DHT22;8557;52.068;5.198;2022-07-25T03:51:08;22.40;99.90
16881;DHT22;8557;52.068;5.198;2022-07-25T03:53:36;22.40;99.90
16881;DHT22;8557;52.068;5.198;2022-07-25T03:56:17;22.40;99.90
16881;DHT22;8557;52.068;5.198;2022-07-25T03:58:44;22.40;99.90
16881;DHT22;8557;52.068;5.198;2022-07-25T04:01:10;22.40;99.90
16881;DHT22;8557;52.068;5.198;2022-07-25T04:03:37;22.40;99.90
16881;DHT22;8557;52.068;5.198;2022-07-25T04:06:05;22.40;99.90
16881;DHT22;8557;52.068;5.198;2022-07-25T04:08:31;22.40;99.90
16881;DHT22;8557;52.068;5.198;2022-07-25T04:10:59;22.40;99.90
16881;DHT22;8557;52.068;5.198;2022-07-25T04:13:26;22.30;99.90
16881;DHT22;8557;52.068;5.198;2022-07-25T04:15:53;22.30;99.90
16881;DHT22;8557;52.068;5.198;2022-07-25T04:18:19;22.30;99.90
16881;DHT22;8557;52.068;5.198;2022-07-25T04:20:46;22.30;99.90
16881;DHT22;8557;52.068;5.198;2022-07-25T04:23:13;22.30;99.90
16881;DHT22;8557;52.068;5.198;2022-07-25T04:25:39;22.30;99.90
16881;DHT22;8557;52.068;5.198;2022-07-25T04:28:08;22.30;99.90
16881;DHT22;8557;52.068;5.198;2022-07-25T04:30:34;22.30;99.90
16881;DHT22;8557;52.068;5.198;2022-07-25T04:33:02;22.30;99.90
16881;DHT22;8557;52.068;5.198;2022-07-25T04:35:28;22.30;99.90
16881;DHT22;8557;52.068;5.198;2022-07-25T04:37:55;22.40;99.90
16881;DHT22;8557;52.068;5.198;2022-07-25T04:40:22;22.40;99.90
16881;DHT22;8557;52.068;5.198;2022-07-25T04:42:48;22.40;99.90
16881;DHT22;8557;52.068;5.198;2022-07-25T04:45:16;22.40;99.90
16881;DHT22;8557;52.068;5.198;2022-07-25T04:47:43;22.40;99.90
16881;DHT22;8557;52.068;5.198;2022-07-25T04:50:10;22.40;99.90
16881;DHT22;8557;52.068;5.198;2022-07-25T04:52:37;22.40;99.90
16881;DHT22;8557;52.068;5.198;2022-07-25T04:55:05;22.40;99.90
16881;DHT22;8557;52.068;5.198;2022-07-25T04:57:31;22.40;99.90
16881;DHT22;8557;52.068;5.198;2022-07-25T04:59:58;22.40;99.90
16881;DHT22;8557;52.068;5.198;2022-07-25T05:02:27;22.40;99.90
16881;DHT22;8557;52.068;5.198;2022-07-25T05:04:53;22.40;99.90
16881;DHT22;8557;52.068;5.198;2022-07-25T05:07:20;22.40;99.90
16881;DHT22;8557;52.068;5.198;2022-07-25T05:09:47;22.40;99.90
16881;DHT22;8557;52.068;5.198;2022-07-25T05:12:13;22.40;99.90
16881;DHT22;8557;52.068;5.198;2022-07-25T05:14:40;22.40;99.90
16881;DHT22;8557;52.068;5.198;2022-07-25T05:17:07;22.40;99.90
16881;DHT22;8557;52.068;5.198;2022-07-25T05:19:35;22.40;99.90
16881;DHT22;8557;52.068;5.198;2022-07-25T05:22:02;22.50;99.90
16881;DHT22;8557;52.068;5.198;2022-07-25T05:24:32;22.50;99.90
16881;DHT22;8557;52.068;5.198;2022-07-25T05:26:59;22.50;99.90
16881;DHT22;8557;52.068;5.198;2022-07-25T05:29:26;22.60;99.90
16881;DHT22;8557;52.068;5.198;2022-07-25T05:31:52;22.60;99.90
16881;DHT22;8557;52.068;5.198;2022-07-25T05:34:19;22.70;99.90
16881;DHT22;8557;52.068;5.198;2022-07-25T05:36:47;22.70;99.90
16881;DHT22;8557;52.068;5.198;2022-07-25T05:39:14;22.80;99.90
16881;DHT22;8557;52.068;5.198;2022-07-25T05:41:41;22.90;99.90
16881;DHT22;8557;52.068;5.198;2022-07-25T05:44:08;23.00;99.90
16881;DHT22;8557;52.068;5.198;2022-07-25T05:46:35;23.10;99.90
16881;DHT22;8557;52.068;5.198;2022-07-25T05:49:01;23.20;99.90
16881;DHT22;8557;52.068;5.198;2022-07-25T05:51:28;23.20;99.90
16881;DHT22;8557;52.068;5.198;2022-07-25T05:53:56;23.40;99.90
16881;DHT22;8557;52.068;5.198;2022-07-25T05:56:23;23.40;99.90
16881;DHT22;8557;52.068;5.198;2022-07-25T05:58:49;23.50;99.90
16881;DHT22;8557;52.068;5.198;2022-07-25T06:01:16;23.60;99.90
16881;DHT22;8557;52.068;5.198;2022-07-25T06:03:43;23.60;99.90
16881;DHT22;8557;52.068;5.198;2022-07-25T06:06:10;23.60;99.90
16881;DHT22;8557;52.068;5.198;2022-07-25T06:08:37;23.70;99.90
16881;DHT22;8557;52.068;5.198;2022-07-25T06:11:05;23.70;99.90
16881;DHT22;8557;52.068;5.198;2022-07-25T06:13:33;23.70;99.90
16881;DHT22;8557;52.068;5.198;2022-07-25T06:16:00;23.80;99.90
16881;DHT22;8557;52.068;5.198;2022-07-25T06:18:27;23.80;98.70
16881;DHT22;8557;52.068;5.198;2022-07-25T06:20:54;23.90;95.20
16881;DHT22;8557;52.068;5.198;2022-07-25T06:23:21;23.80;90.40
16881;DHT22;8557;52.068;5.198;2022-07-25T06:25:47;23.90;89.00
16881;DHT22;8557;52.068;5.198;2022-07-25T06:28:15;23.90;87.20
16881;DHT22;8557;52.068;5.198;2022-07-25T06:30:43;23.90;89.70
16881;DHT22;8557;52.068;5.198;2022-07-25T06:33:10;23.90;85.70
16881;DHT22;8557;52.068;5.198;2022-07-25T06:35:37;24.00;81.40
16881;DHT22;8557;52.068;5.198;2022-07-25T06:38:04;24.00;73.60
16881;DHT22;8557;52.068;5.198;2022-07-25T06:40:31;24.10;70.00
16881;DHT22;8557;52.068;5.198;2022-07-25T06:42:58;24.20;65.70
16881;DHT22;8557;52.068;5.198;2022-07-25T06:45:26;24.20;60.40
16881;DHT22;8557;52.068;5.198;2022-07-25T06:47:52;24.30;57.50
16881;DHT22;8557;52.068;5.198;2022-07-25T06:50:19;24.30;53.50
16881;DHT22;8557;52.068;5.198;2022-07-25T06:52:46;24.30;47.60
16881;DHT22;8557;52.068;5.198;2022-07-25T06:55:14;24.30;47.00
16881;DHT22;8557;52.068;5.198;2022-07-25T06:57:41;24.30;49.20
16881;DHT22;8557;52.068;5.198;2022-07-25T07:00:11;24.30;45.10
16881;DHT22;8557;52.068;5.198;2022-07-25T07:02:48;24.20;43.40
16881;DHT22;8557;52.068;5.198;2022-07-25T07:05:15;24.20;39.10
16881;DHT22;8557;52.068;5.198;2022-07-25T07:07:42;24.20;39.40
16881;DHT22;8557;52.068;5.198;2022-07-25T07:10:09;24.20;41.80
16881;DHT22;8557;52.068;5.198;2022-07-25T07:12:36;24.10;44.20
16881;DHT22;8557;52.068;5.198;2022-07-25T07:15:03;24.10;49.40
16881;DHT22;8557;52.068;5.198;2022-07-25T07:17:30;24.20;48.80
16881;DHT22;8557;52.068;5.198;2022-07-25T07:19:58;24.10;50.60
16881;DHT22;8557;52.068;5.198;2022-07-25T07:22:25;24.10;51.60
16881;DHT22;8557;52.068;5.198;2022-07-25T07:24:52;24.10;52.80
16881;DHT22;8557;52.068;5.198;2022-07-25T07:27:19;24.10;52.80
16881;DHT22;8557;52.068;5.198;2022-07-25T07:29:48;24.10;55.50
16881;DHT22;8557;52.068;5.198;2022-07-25T07:32:14;24.20;61.80
16881;DHT22;8557;52.068;5.198;2022-07-25T07:34:41;24.20;73.20
16881;DHT22;8557;52.068;5.198;2022-07-25T07:37:09;24.20;80.80
16881;DHT22;8557;52.068;5.198;2022-07-25T07:39:36;24.30;84.40
16881;DHT22;8557;52.068;5.198;2022-07-25T07:42:03;24.30;83.70
16881;DHT22;8557;52.068;5.198;2022-07-25T07:44:30;24.40;84.70
16881;DHT22;8557;52.068;5.198;2022-07-25T07:46:57;24.40;84.20
16881;DHT22;8557;52.068;5.198;2022-07-25T07:49:27;24.50;77.60
16881;DHT22;8557;52.068;5.198;2022-07-25T07:51:54;24.40;72.80
16881;DHT22;8557;52.068;5.198;2022-07-25T07:54:22;24.50;75.90
16881;DHT22;8557;52.068;5.198;2022-07-25T07:57:06;24.50;80.30
16881;DHT22;8557;52.068;5.198;2022-07-25T07:59:33;24.40;80.50
16881;DHT22;8557;52.068;5.198;2022-07-25T08:02:00;24.50;84.30
16881;DHT22;8557;52.068;5.198;2022-07-25T08:04:27;24.50;84.60
16881;DHT22;8557;52.068;5.198;2022-07-25T08:06:54;24.50;81.70
16881;DHT22;8557;52.068;5.198;2022-07-25T08:09:22;24.60;81.50
16881;DHT22;8557;52.068;5.198;2022-07-25T08:11:50;24.60;78.70
16881;DHT22;8557;52.068;5.198;2022-07-25T08:14:17;24.60;82.80
16881;DHT22;8557;52.068;5.198;2022-07-25T08:16:44;24.60;88.10
16881;DHT22;8557;52.068;5.198;2022-07-25T08:19:10;24.60;93.20
16881;DHT22;8557;52.068;5.198;2022-07-25T08:21:37;24.50;95.80
16881;DHT22;8557;52.068;5.198;2022-07-25T08:24:04;24.60;96.80
16881;DHT22;8557;52.068;5.198;2022-07-25T08:26:33;24.50;97.30
16881;DHT22;8557;52.068;5.198;2022-07-25T08:29:01;24.50;97.20
16881;DHT22;8557;52.068;5.198;2022-07-25T08:31:28;24.40;97.80
16881;DHT22;8557;52.068;5.198;2022-07-25T08:33:55;24.50;97.60
16881;DHT22;8557;52.068;5.198;2022-07-25T08:36:22;24.50;97.90
16881;DHT22;8557;52.068;5.198;2022-07-25T08:38:48;24.70;95.10
16881;DHT22;8557;52.068;5.198;2022-07-25T08:41:15;24.90;91.10
16881;DHT22;8557;52.068;5.198;2022-07-25T08:43:45;25.10;79.10
16881;DHT22;8557;52.068;5.198;2022-07-25T08:46:13;25.20;64.10
16881;DHT22;8557;52.068;5.198;2022-07-25T08:48:41;25.30;54.40
16881;DHT22;8557;52.068;5.198;2022-07-25T08:51:09;25.30;49.30
16881;DHT22;8557;52.068;5.198;2022-07-25T08:53:36;25.30;41.10
16881;DHT22;8557;52.068;5.198;2022-07-25T08:56:04;25.30;38.50
16881;DHT22;8557;52.068;5.198;2022-07-25T08:58:32;25.40;38.50
16881;DHT22;8557;52.068;5.198;2022-07-25T09:01:00;25.40;37.90
16881;DHT22;8557;52.068;5.198;2022-07-25T09:03:27;25.40;39.00
16881;DHT22;8557;52.068;5.198;2022-07-25T09:05:53;25.50;37.10
16881;DHT22;8557;52.068;5.198;2022-07-25T09:08:20;25.40;37.20
16881;DHT22;8557;52.068;5.198;2022-07-25T09:10:48;25.40;43.80
16881;DHT22;8557;52.068;5.198;2022-07-25T09:13:17;25.20;38.40
16881;DHT22;8557;52.068;5.198;2022-07-25T09:15:45;25.10;38.60
16881;DHT22;8557;52.068;5.198;2022-07-25T09:18:15;25.10;38.80
16881;DHT22;8557;52.068;5.198;2022-07-25T09:20:44;25.10;35.20
16881;DHT22;8557;52.068;5.198;2022-07-25T09:23:12;25.10;33.70
16881;DHT22;8557;52.068;5.198;2022-07-25T09:25:40;25.10;30.00
16881;DHT22;8557;52.068;5.198;2022-07-25T09:28:12;25.10;26.90
16881;DHT22;8557;52.068;5.198;2022-07-25T09:30:39;25.10;25.40
16881;DHT22;8557;52.068;5.198;2022-07-25T09:33:06;25.10;25.70
16881;DHT22;8557;52.068;5.198;2022-07-25T09:35:35;25.20;26.70
16881;DHT22;8557;52.068;5.198;2022-07-25T09:38:08;25.30;35.10
16881;DHT22;8557;52.068;5.198;2022-07-25T09:40:35;25.50;38.80
16881;DHT22;8557;52.068;5.198;2022-07-25T09:43:02;25.60;42.40
16881;DHT22;8557;52.068;5.198;2022-07-25T09:45:29;25.80;39.40
16881;DHT22;8557;52.068;5.198;2022-07-25T09:47:58;26.00;36.00
16881;DHT22;8557;52.068;5.198;2022-07-25T09:50:27;26.20;35.60
16881;DHT22;8557;52.068;5.198;2022-07-25T09:52:58;26.50;27.40
16881;DHT22;8557;52.068;5.198;2022-07-25T09:55:27;26.60;20.20
16881;DHT22;8557;52.068;5.198;2022-07-25T09:57:54;26.70;13.30
16881;DHT22;8557;52.068;5.198;2022-07-25T10:00:23;26.70;1.80
16881;DHT22;8557;52.068;5.198;2022-07-25T10:02:57;26.60;6.00
16881;DHT22;8557;52.068;5.198;2022-07-25T10:05:38;26.50;3.00
16881;DHT22;8557;52.068;5.198;2022-07-25T10:08:10;26.30;2.40
16881;DHT22;8557;52.068;5.198;2022-07-25T10:10:39;26.20;7.20
16881;DHT22;8557;52.068;5.198;2022-07-25T10:13:08;26.10;7.60
16881;DHT22;8557;52.068;5.198;2022-07-25T10:15:41;26.10;6.10
16881;DHT22;8557;52.068;5.198;2022-07-25T10:18:08;26.20;6.70
16881;DHT22;8557;52.068;5.198;2022-07-25T10:20:35;26.30;5.10
16881;DHT22;8557;52.068;5.198;2022-07-25T10:23:03;26.40;2.50
16881;DHT22;8557;52.068;5.198;2022-07-25T10:25:31;26.50;1.00
16881;DHT22;8557;52.068;5.198;2022-07-25T10:27:59;26.70;1.00
16881;DHT22;8557;52.068;5.198;2022-07-25T10:30:34;26.70;1.00
16881;DHT22;8557;52.068;5.198;2022-07-25T10:33:03;26.80;1.00
16881;DHT22;8557;52.068;5.198;2022-07-25T10:35:31;26.70;1.00
16881;DHT22;8557;52.068;5.198;2022-07-25T10:37:58;26.60;1.00
16881;DHT22;8557;52.068;5.198;2022-07-25T10:40:33;26.50;1.00
16881;DHT22;8557;52.068;5.198;2022-07-25T10:43:06;26.30;1.00
16881;DHT22;8557;52.068;5.198;2022-07-25T10:45:36;26.10;1.00
16881;DHT22;8557;52.068;5.198;2022-07-25T10:48:10;26.00;1.00
16881;DHT22;8557;52.068;5.198;2022-07-25T10:50:48;26.00;1.00
16881;DHT22;8557;52.068;5.198;2022-07-25T10:53:26;26.10;1.00
16881;DHT22;8557;52.068;5.198;2022-07-25T10:55:57;26.20;1.00
16881;DHT22;8557;52.068;5.198;2022-07-25T10:58:24;26.20;1.00
16881;DHT22;8557;52.068;5.198;2022-07-25T11:00:52;26.30;1.00
16881;DHT22;8557;52.068;5.198;2022-07-25T11:03:20;26.20;1.00
16881;DHT22;8557;52.068;5.198;2022-07-25T11:05:47;26.10;1.00
16881;DHT22;8557;52.068;5.198;2022-07-25T11:08:16;26.00;1.00
16881;DHT22;8557;52.068;5.198;2022-07-25T11:10:50;25.80;1.00
16881;DHT22;8557;52.068;5.198;2022-07-25T11:13:19;25.60;1.00
16881;DHT22;8557;52.068;5.198;2022-07-25T11:15:46;25.50;1.00
16881;DHT22;8557;52.068;5.198;2022-07-25T11:18:13;25.50;1.00
16881;DHT22;8557;52.068;5.198;2022-07-25T11:20:39;25.50;1.00
16881;DHT22;8557;52.068;5.198;2022-07-25T11:23:06;25.60;1.00
16881;DHT22;8557;52.068;5.198;2022-07-25T11:25:33;25.70;1.00
16881;DHT22;8557;52.068;5.198;2022-07-25T11:28:00;25.70;1.00
16881;DHT22;8557;52.068;5.198;2022-07-25T11:30:29;25.70;1.00
16881;DHT22;8557;52.068;5.198;2022-07-25T11:32:58;25.50;1.00
16881;DHT22;8557;52.068;5.198;2022-07-25T11:35:27;25.50;1.00
16881;DHT22;8557;52.068;5.198;2022-07-25T11:37:55;25.40;1.00
16881;DHT22;8557;52.068;5.198;2022-07-25T11:40:23;25.30;1.00
16881;DHT22;8557;52.068;5.198;2022-07-25T11:42:51;25.20;1.00
16881;DHT22;8557;52.068;5.198;2022-07-25T11:45:19;25.10;1.00
16881;DHT22;8557;52.068;5.198;2022-07-25T11:47:49;25.00;1.00
16881;DHT22;8557;52.068;5.198;2022-07-25T11:50:16;24.90;1.00
16881;DHT22;8557;52.068;5.198;2022-07-25T11:52:43;24.90;1.00
16881;DHT22;8557;52.068;5.198;2022-07-25T11:55:12;24.80;1.00
16881;DHT22;8557;52.068;5.198;2022-07-25T11:57:43;24.70;1.00
16881;DHT22;8557;52.068;5.198;2022-07-25T12:00:16;24.70;1.00
16881;DHT22;8557;52.068;5.198;2022-07-25T12:02:43;24.70;1.00
16881;DHT22;8557;52.068;5.198;2022-07-25T12:05:13;24.60;1.00
16881;DHT22;8557;52.068;5.198;2022-07-25T12:07:42;24.60;1.00
16881;DHT22;8557;52.068;5.198;2022-07-25T12:10:12;24.50;1.00
16881;DHT22;8557;52.068;5.198;2022-07-25T12:12:46;24.50;1.00
16881;DHT22;8557;52.068;5.198;2022-07-25T12:15:15;24.50;1.00
16881;DHT22;8557;52.068;5.198;2022-07-25T12:17:42;24.60;1.00
16881;DHT22;8557;52.068;5.198;2022-07-25T12:20:15;24.70;1.00
16881;DHT22;8557;52.068;5.198;2022-07-25T12:22:42;24.90;1.00
16881;DHT22;8557;52.068;5.198;2022-07-25T12:25:10;25.00;6.70
16881;DHT22;8557;52.068;5.198;2022-07-25T12:27:37;25.30;1.00
16881;DHT22;8557;52.068;5.198;2022-07-25T12:30:05;25.50;1.00
16881;DHT22;8557;52.068;5.198;2022-07-25T12:32:32;25.80;1.00
16881;DHT22;8557;52.068;5.198;2022-07-25T12:34:59;25.90;1.00
16881;DHT22;8557;52.068;5.198;2022-07-25T12:37:27;26.00;1.00
16881;DHT22;8557;52.068;5.198;2022-07-25T12:39:54;26.20;1.00
16881;DHT22;8557;52.068;5.198;2022-07-25T12:42:20;26.50;1.00
16881;DHT22;8557;52.068;5.198;2022-07-25T12:44:47;26.70;1.00
16881;DHT22;8557;52.068;5.198;2022-07-25T12:47:14;26.70;1.00
16881;DHT22;8557;52.068;5.198;2022-07-25T12:49:41;26.80;1.00
16881;DHT22;8557;52.068;5.198;2022-07-25T12:52:08;26.70;1.00
16881;DHT22;8557;52.068;5.198;2022-07-25T12:54:36;26.50;1.00
16881;DHT22;8557;52.068;5.198;2022-07-25T12:57:03;26.40;1.00
16881;DHT22;8557;52.068;5.198;2022-07-25T12:59:30;26.30;1.00
16881;DHT22;8557;52.068;5.198;2022-07-25T13:01:57;26.30;1.00
16881;DHT22;8557;52.068;5.198;2022-07-25T13:04:24;26.60;1.00
16881;DHT22;8557;52.068;5.198;2022-07-25T13:06:51;27.00;1.00
16881;DHT22;8557;52.068;5.198;2022-07-25T13:09:18;27.40;1.00
16881;DHT22;8557;52.068;5.198;2022-07-25T13:11:46;27.60;1.00
16881;DHT22;8557;52.068;5.198;2022-07-25T13:14:13;27.70;1.00
16881;DHT22;8557;52.068;5.198;2022-07-25T13:16:40;27.60;1.00
16881;DHT22;8557;52.068;5.198;2022-07-25T13:19:07;27.60;1.00
16881;DHT22;8557;52.068;5.198;2022-07-25T13:21:34;27.90;1.00
16881;DHT22;8557;52.068;5.198;2022-07-25T13:24:01;28.60;1.00
16881;DHT22;8557;52.068;5.198;2022-07-25T13:26:28;29.10;1.00
16881;DHT22;8557;52.068;5.198;2022-07-25T13:28:56;29.30;1.00
16881;DHT22;8557;52.068;5.198;2022-07-25T13:31:23;29.10;1.00
16881;DHT22;8557;52.068;5.198;2022-07-25T13:33:49;29.00;1.00
16881;DHT22;8557;52.068;5.198;2022-07-25T13:36:17;28.70;1.00
16881;DHT22;8557;52.068;5.198;2022-07-25T13:38:44;28.20;1.00
16881;DHT22;8557;52.068;5.198;2022-07-25T13:41:12;27.90;1.00
16881;DHT22;8557;52.068;5.198;2022-07-25T13:43:39;27.80;1.00
16881;DHT22;8557;52.068;5.198;2022-07-25T13:46:08;28.20;1.00
16881;DHT22;8557;52.068;5.198;2022-07-25T13:48:36;28.50;1.00
16881;DHT22;8557;52.068;5.198;2022-07-25T13:51:02;28.60;1.00
16881;DHT22;8557;52.068;5.198;2022-07-25T13:53:29;28.50;1.00
16881;DHT22;8557;52.068;5.198;2022-07-25T13:55:57;28.60;1.00
16881;DHT22;8557;52.068;5.198;2022-07-25T13:58:24;28.70;1.00
16881;DHT22;8557;52.068;5.198;2022-07-25T14:00:50;28.50;1.00
16881;DHT22;8557;52.068;5.198;2022-07-25T14:03:19;28.20;1.00
16881;DHT22;8557;52.068;5.198;2022-07-25T14:05:45;28.00;1.00
16881;DHT22;8557;52.068;5.198;2022-07-25T14:08:12;28.10;1.00
16881;DHT22;8557;52.068;5.198;2022-07-25T14:10:39;28.00;1.00
16881;DHT22;8557;52.068;5.198;2022-07-25T14:13:06;28.10;1.00
16881;DHT22;8557;52.068;5.198;2022-07-25T14:15:33;28.20;1.00
16881;DHT22;8557;52.068;5.198;2022-07-25T14:18:00;28.90;1.00
16881;DHT22;8557;52.068;5.198;2022-07-25T14:20:28;29.70;1.00
16881;DHT22;8557;52.068;5.198;2022-07-25T14:22:54;30.20;1.00
16881;DHT22;8557;52.068;5.198;2022-07-25T14:25:21;30.40;1.00
16881;DHT22;8557;52.068;5.198;2022-07-25T14:27:48;30.70;1.00
16881;DHT22;8557;52.068;5.198;2022-07-25T14:30:15;31.00;1.00
16881;DHT22;8557;52.068;5.198;2022-07-25T14:32:41;30.90;1.00
16881;DHT22;8557;52.068;5.198;2022-07-25T14:35:09;30.80;1.00
16881;DHT22;8557;52.068;5.198;2022-07-25T14:37:37;30.90;1.00
16881;DHT22;8557;52.068;5.198;2022-07-25T14:40:05;31.00;1.00
16881;DHT22;8557;52.068;5.198;2022-07-25T14:42:35;31.40;1.00
16881;DHT22;8557;52.068;5.198;2022-07-25T14:45:03;32.10;1.00
16881;DHT22;8557;52.068;5.198;2022-07-25T14:47:30;32.70;1.00
16881;DHT22;8557;52.068;5.198;2022-07-25T14:49:56;32.90;1.00
16881;DHT22;8557;52.068;5.198;2022-07-25T14:52:23;32.90;1.00
16881;DHT22;8557;52.068;5.198;2022-07-25T14:54:51;33.00;1.00
16881;DHT22;8557;52.068;5.198;2022-07-25T14:57:18;33.10;1.00
16881;DHT22;8557;52.068;5.198;2022-07-25T14:59:45;32.70;1.00
16881;DHT22;8557;52.068;5.198;2022-07-25T15:02:11;32.90;1.00
16881;DHT22;8557;52.068;5.198;2022-07-25T15:04:38;33.20;1.00
16881;DHT22;8557;52.068;5.198;2022-07-25T15:07:05;33.40;1.00
16881;DHT22;8557;52.068;5.198;2022-07-25T15:09:32;33.50;1.00
16881;DHT22;8557;52.068;5.198;2022-07-25T15:12:00;33.60;1.00
16881;DHT22;8557;52.068;5.198;2022-07-25T15:14:27;33.20;1.00
16881;DHT22;8557;52.068;5.198;2022-07-25T15:16:54;32.60;1.00
16881;DHT22;8557;52.068;5.198;2022-07-25T15:19:20;32.30;1.00
16881;DHT22;8557;52.068;5.198;2022-07-25T15:21:47;32.50;1.00
16881;DHT22;8557;52.068;5.198;2022-07-25T15:24:14;32.90;1.00
16881;DHT22;8557;52.068;5.198;2022-07-25T15:26:41;33.20;1.00
16881;DHT22;8557;52.068;5.198;2022-07-25T15:29:09;33.50;1.00
16881;DHT22;8557;52.068;5.198;2022-07-25T15:31:37;33.80;1.00
16881;DHT22;8557;52.068;5.198;2022-07-25T15:34:04;34.50;1.00
16881;DHT22;8557;52.068;5.198;2022-07-25T15:36:31;34.20;1.00
16881;DHT22;8557;52.068;5.198;2022-07-25T15:38:58;34.00;1.00
16881;DHT22;8557;52.068;5.198;2022-07-25T15:41:24;33.90;1.00
16881;DHT22;8557;52.068;5.198;2022-07-25T15:43:52;33.60;1.00
16881;DHT22;8557;52.068;5.198;2022-07-25T15:46:20;33.30;1.00
16881;DHT22;8557;52.068;5.198;2022-07-25T15:48:47;32.80;1.00
16881;DHT22;8557;52.068;5.198;2022-07-25T15:51:14;32.40;1.00
16881;DHT22;8557;52.068;5.198;2022-07-25T15:53:42;32.20;1.00